Time;durP1;ratioP1;P1;durP2;ratioP2;P2;SDS_P1;SDS_P2;PMS_P1;PMS_P2;Temp;Humidity;BMP_temperature;BMP_pressure;BME280_temperature;BME280_humidity;BME280_pressure;Samples;Min_cycle;Max_cycle;Signal;HPM_P1;HPM_P2
2024/02/27 00:00:43;;;;;;;5.10;4.57;;;4.80;91.30;;;;;;6320945;28;20459;-67
2024/02/27 00:03:53;;;;;;;8.10;4.73;;;4.80;91.20;;;;;;6326691;28;20449;-67
2024/02/27 00:06:58;;;;;;;6.07;4.87;;;4.80;91.30;;;;;;6307522;28;20441;-69
2024/02/27 00:10:04;;;;;;;4.40;4.00;;;4.70;91.60;;;;;;6318766;28;20440;-67
2024/02/27 00:13:12;;;;;;;4.00;3.30;;;4.80;91.30;;;;;;6326348;28;20456;-68
2024/02/27 00:16:22;;;;;;;5.80;4.00;;;4.70;91.30;;;;;;6325923;28;20495;-66
2024/02/27 00:19:26;;;;;;;4.67;4.13;;;4.70;91.30;;;;;;6326180;28;20895;-68
2024/02/27 00:22:39;;;;;;;5.33;4.83;;;4.70;91.30;;;;;;6325885;28;20444;-66
2024/02/27 00:25:48;;;;;;;5.83;3.77;;;4.70;91.30;;;;;;6325711;28;20472;-65
2024/02/27 00:29:03;;;;;;;6.43;4.20;;;4.60;91.30;;;;;;6325926;28;20440;-66
2024/02/27 00:32:12;;;;;;;5.53;4.50;;;4.60;91.40;;;;;;6325125;28;20789;-65
2024/02/27 00:35:16;;;;;;;4.57;3.60;;;4.60;91.40;;;;;;6325753;28;20476;-66
2024/02/27 00:38:21;;;;;;;4.60;4.20;;;4.60;91.40;;;;;;6325646;28;20459;-67
2024/02/27 00:41:28;;;;;;;5.43;3.80;;;4.60;91.50;;;;;;6325653;28;20745;-67
2024/02/27 00:44:38;;;;;;;6.33;4.13;;;4.50;91.50;;;;;;6320889;28;20972;-65
2024/02/27 00:47:50;;;;;;;4.07;3.60;;;4.50;91.50;;;;;;6300880;28;21141;-64
2024/02/27 00:50:56;;;;;;;4.80;3.70;;;4.50;91.60;;;;;;6291287;28;20484;-65
2024/02/27 00:54:10;;;;;;;4.97;4.00;;;4.50;91.60;;;;;;6298045;28;20462;-66
2024/02/27 00:57:15;;;;;;;4.63;4.23;;;4.50;91.60;;;;;;6299751;28;20453;-66
2024/02/27 01:00:23;;;;;;;4.37;3.97;;;4.50;91.60;;;;;;6295391;28;20453;-66
2024/02/27 01:03:45;;;;;;;6.87;3.87;;;4.40;91.60;;;;;;6296440;28;20579;-66
2024/02/27 01:07:01;;;;;;;4.10;3.67;;;4.40;91.70;;;;;;6298759;28;20469;-65
2024/02/27 01:10:10;;;;;;;4.37;3.87;;;4.40;91.70;;;;;;6308932;28;20436;-65
2024/02/27 01:13:33;;;;;;;4.33;4.03;;;4.30;91.70;;;;;;6325427;28;20513;-65
2024/02/27 01:16:43;;;;;;;12.63;4.60;;;4.30;91.70;;;;;;6324203;28;20548;-64
2024/02/27 01:19:59;;;;;;;5.07;4.00;;;4.30;91.80;;;;;;6320663;28;20766;-64
2024/02/27 01:26:35;;;;;;;5.23;4.53;;;4.20;91.80;;;;;;6296106;28;20485;-65
2024/02/27 01:29:50;;;;;;;4.67;4.27;;;4.20;92.20;;;;;;6298053;28;20843;-64
2024/02/27 01:33:07;;;;;;;5.00;4.60;;;4.20;91.90;;;;;;6298478;28;20893;-64
2024/02/27 01:36:31;;;;;;;4.70;4.30;;;4.10;91.80;;;;;;6296900;28;20791;-64
2024/02/27 01:39:47;;;;;;;4.60;4.13;;;4.10;91.90;;;;;;6298181;28;20782;-65
2024/02/27 01:43:00;;;;;;;4.67;3.93;;;4.00;91.90;;;;;;6297986;28;20921;-65
2024/02/27 01:46:16;;;;;;;6.63;3.77;;;4.00;92.00;;;;;;6273089;28;20773;-65
2024/02/27 01:49:25;;;;;;;3.70;3.37;;;4.00;92.70;;;;;;6273851;28;20451;-64
2024/02/27 01:52:35;;;;;;;6.33;3.63;;;4.00;92.70;;;;;;6247867;28;20447;-65
2024/02/27 01:55:44;;;;;;;5.03;3.83;;;4.00;92.60;;;;;;6248959;28;20648;-65
2024/02/27 01:58:54;;;;;;;4.60;3.83;;;4.00;92.50;;;;;;6248151;28;20838;-65
2024/02/27 02:02:10;;;;;;;4.33;3.93;;;4.00;92.40;;;;;;6248611;28;20525;-65
2024/02/27 02:05:14;;;;;;;4.03;3.73;;;4.00;92.30;;;;;;6231178;28;20930;-65
2024/02/27 02:08:34;;;;;;;3.83;3.53;;;3.90;92.20;;;;;;6248225;28;20544;-66
2024/02/27 02:11:44;;;;;;;6.00;3.87;;;4.00;92.20;;;;;;6249195;28;20443;-64
2024/02/27 02:15:00;;;;;;;4.63;4.23;;;3.90;92.10;;;;;;6248173;28;20947;-65
2024/02/27 02:18:14;;;;;;;8.20;4.67;;;3.90;92.20;;;;;;6251466;28;20457;-66
2024/02/27 02:21:36;;;;;;;4.33;4.00;;;3.90;92.20;;;;;;6272517;28;20875;-64
2024/02/27 02:24:44;;;;;;;3.90;3.60;;;3.80;92.30;;;;;;6272612;28;20865;-65
2024/02/27 02:27:56;;;;;;;6.90;3.80;;;3.80;92.40;;;;;;6272756;28;20485;-65
2024/02/27 02:31:12;;;;;;;4.33;3.67;;;3.80;92.50;;;;;;6273227;28;20908;-65
2024/02/27 02:34:25;;;;;;;4.67;3.80;;;3.70;92.40;;;;;;6272422;28;20470;-64
2024/02/27 02:37:50;;;;;;;3.87;3.57;;;3.70;92.50;;;;;;6272736;28;20488;-65
2024/02/27 02:41:06;;;;;;;3.97;3.67;;;3.70;92.60;;;;;;6272419;28;20461;-65
2024/02/27 02:44:13;;;;;;;5.13;3.77;;;3.70;92.60;;;;;;6272425;28;20510;-64
2024/02/27 02:47:25;;;;;;;4.50;3.30;;;3.60;92.60;;;;;;6272518;28;20925;-65
2024/02/27 02:50:45;;;;;;;4.03;3.67;;;3.60;92.70;;;;;;6282157;28;20953;-64
2024/02/27 02:54:01;;;;;;;4.07;3.67;;;3.60;92.80;;;;;;6296882;28;20441;-65
2024/02/27 02:57:06;;;;;;;4.13;3.73;;;3.60;92.80;;;;;;6296640;28;20960;-64
2024/02/27 03:00:23;;;;;;;5.13;3.83;;;3.60;92.80;;;;;;6296788;28;21003;-65
2024/02/27 03:03:31;;;;;;;3.90;3.50;;;3.60;92.90;;;;;;6297665;28;20500;-64
2024/02/27 03:06:47;;;;;;;4.23;3.40;;;3.50;92.90;;;;;;6297555;28;20457;-65
2024/02/27 03:09:58;;;;;;;3.80;3.47;;;3.50;92.90;;;;;;6298788;28;20562;-64
2024/02/27 03:13:08;;;;;;;6.80;3.70;;;3.50;93.00;;;;;;6297387;28;20456;-64
2024/02/27 03:16:14;;;;;;;4.07;3.50;;;3.50;93.00;;;;;;6296774;28;20528;-64
2024/02/27 03:19:27;;;;;;;3.70;3.30;;;3.50;93.10;;;;;;6297769;28;20796;-64
2024/02/27 03:22:35;;;;;;;4.40;3.10;;;3.50;93.10;;;;;;6251562;28;20440;-65
2024/02/27 03:25:47;;;;;;;3.67;3.47;;;3.50;93.20;;;;;;6249756;28;20481;-65
2024/02/27 03:28:54;;;;;;;3.20;2.90;;;3.50;93.40;;;;;;6248295;28;20449;-66
2024/02/27 03:32:09;;;;;;;5.20;3.60;;;3.50;93.50;;;;;;6250435;28;20443;-65
2024/02/27 03:35:18;;;;;;;3.90;3.60;;;3.50;93.50;;;;;;6240223;28;20491;-65
2024/02/27 03:38:32;;;;;;;4.60;3.97;;;3.60;93.50;;;;;;6248147;28;20435;-65
2024/02/27 03:41:58;;;;;;;3.23;3.03;;;3.60;93.40;;;;;;6248801;28;20505;-65
2024/02/27 03:45:08;;;;;;;3.60;3.30;;;3.60;93.40;;;;;;6248305;28;20467;-65
2024/02/27 03:48:25;;;;;;;6.00;3.83;;;3.60;93.30;;;;;;6247379;28;20493;-65
2024/02/27 03:51:32;;;;;;;3.03;2.80;;;3.60;93.20;;;;;;6263308;28;20466;-65
2024/02/27 03:54:46;;;;;;;4.00;3.67;;;3.60;93.20;;;;;;6218764;28;20465;-65
2024/02/27 03:58:10;;;;;;;3.60;3.13;;;3.70;93.20;;;;;;6288948;28;20473;-65
2024/02/27 04:01:16;;;;;;;6.73;3.57;;;3.40;93.40;;;;;;6283860;28;20441;-65
2024/02/27 04:04:24;;;;;;;5.00;3.53;;;3.20;93.90;;;;;;6301742;28;20465;-65
2024/02/27 04:07:32;;;;;;;5.33;3.90;;;3.10;94.30;;;;;;6315671;28;20498;-64
2024/02/27 04:10:59;;;;;;;4.63;3.50;;;3.20;94.40;;;;;;6275129;28;20438;-64
2024/02/27 04:14:22;;;;;;;4.53;3.73;;;3.30;94.20;;;;;;6296675;28;20434;-65
2024/02/27 04:17:37;;;;;;;4.40;4.00;;;3.40;94.10;;;;;;6291988;28;20810;-65
2024/02/27 04:20:52;;;;;;;4.37;3.97;;;3.40;93.90;;;;;;6299826;28;20456;-64
2024/02/27 04:23:59;;;;;;;4.30;3.77;;;3.50;93.80;;;;;;6300828;28;20441;-65
2024/02/27 04:27:15;;;;;;;4.50;3.43;;;3.40;93.70;;;;;;6300184;28;20515;-65
2024/02/27 04:30:22;;;;;;;3.60;3.30;;;3.50;93.70;;;;;;6300276;28;20430;-65
2024/02/27 04:33:31;;;;;;;5.23;3.90;;;3.50;93.50;;;;;;6293550;28;20850;-65
2024/02/27 04:36:41;;;;;;;4.20;3.60;;;3.50;93.50;;;;;;6299001;28;20568;-65
2024/02/27 04:39:48;;;;;;;4.00;3.70;;;3.50;93.40;;;;;;6298735;28;20455;-65
2024/02/27 04:42:55;;;;;;;3.23;3.03;;;3.50;93.50;;;;;;6300032;28;20468;-65
2024/02/27 04:46:28;;;;;;;4.20;3.70;;;3.40;93.70;;;;;;6301245;28;20641;-64
2024/02/27 04:49:40;;;;;;;3.97;3.53;;;3.30;93.70;;;;;;6299467;28;20444;-64
2024/02/27 04:52:56;;;;;;;5.23;4.30;;;3.50;93.70;;;;;;6298490;28;20449;-64
2024/02/27 04:56:10;;;;;;;4.33;4.00;;;3.50;93.60;;;;;;6299304;28;20492;-64
2024/02/27 04:59:22;;;;;;;4.60;3.73;;;3.60;93.50;;;;;;6299151;28;20453;-64
2024/02/27 05:02:37;;;;;;;4.67;4.30;;;3.60;93.40;;;;;;6299221;28;20456;-65
2024/02/27 05:05:52;;;;;;;5.43;3.43;;;3.70;93.30;;;;;;6298796;28;20475;-65
2024/02/27 05:08:57;;;;;;;3.50;3.30;;;3.60;93.20;;;;;;6298256;28;20861;-65
2024/02/27 05:12:14;;;;;;;4.47;3.30;;;3.70;93.20;;;;;;6298483;28;20445;-64
2024/02/27 05:15:23;;;;;;;7.63;4.17;;;3.70;93.10;;;;;;6299177;28;20468;-66
2024/02/27 05:18:52;;;;;;;5.87;4.07;;;3.70;93.40;;;;;;6299274;28;20469;-64
2024/02/27 05:22:01;;;;;;;4.70;3.57;;;3.70;92.90;;;;;;6298754;28;20456;-65
2024/02/27 05:25:14;;;;;;;5.33;3.97;;;3.70;92.80;;;;;;6298815;28;20615;-65
2024/02/27 05:28:24;;;;;;;3.50;3.20;;;3.70;92.80;;;;;;6290709;28;20442;-65
2024/02/27 05:31:37;;;;;;;4.23;3.83;;;3.70;92.80;;;;;;6297910;28;20525;-65
2024/02/27 05:34:47;;;;;;;4.47;4.00;;;3.70;92.80;;;;;;6297608;28;20465;-65
2024/02/27 05:37:52;;;;;;;5.63;3.27;;;3.70;92.80;;;;;;6297949;28;20581;-65
2024/02/27 05:41:02;;;;;;;3.63;3.33;;;3.60;92.90;;;;;;6298543;28;20574;-65
2024/02/27 05:44:11;;;;;;;4.90;4.00;;;3.60;93.20;;;;;;6297480;28;20430;-65
2024/02/27 05:47:19;;;;;;;5.90;4.30;;;3.60;93.40;;;;;;6295240;28;20453;-66
2024/02/27 05:50:40;;;;;;;4.77;4.30;;;3.70;93.60;;;;;;6297510;28;20527;-65
2024/02/27 05:53:48;;;;;;;5.90;4.13;;;3.70;93.50;;;;;;6272645;28;20526;-64
2024/02/27 05:56:57;;;;;;;3.90;3.60;;;3.80;93.50;;;;;;6272157;28;20493;-66
2024/02/27 06:00:05;;;;;;;4.20;3.80;;;3.90;93.40;;;;;;6272260;28;20457;-65
2024/02/27 06:03:10;;;;;;;5.40;4.67;;;4.00;93.50;;;;;;6275251;28;20463;-65
2024/02/27 06:06:33;;;;;;;4.83;4.43;;;4.10;93.60;;;;;;6296696;28;20461;-65
2024/02/27 06:09:44;;;;;;;5.57;4.67;;;4.20;93.60;;;;;;6296109;28;20795;-65
2024/02/27 06:13:00;;;;;;;6.03;5.47;;;4.40;93.70;;;;;;6297151;28;20445;-65
2024/02/27 06:16:08;;;;;;;10.50;5.23;;;4.60;93.70;;;;;;6296953;28;20461;-66
2024/02/27 06:19:22;;;;;;;7.80;5.97;;;4.80;93.70;;;;;;6296917;28;20426;-65
2024/02/27 06:22:41;;;;;;;4.80;4.30;;;5.10;93.90;;;;;;6296466;28;20442;-65
2024/02/27 06:25:54;;;;;;;5.33;4.20;;;5.50;93.70;;;;;;6296761;28;20472;-66
2024/02/27 06:29:10;;;;;;;8.70;5.77;;;6.20;92.60;;;;;;6296951;28;20442;-65
2024/02/27 06:32:18;;;;;;;7.07;6.40;;;6.90;91.10;;;;;;6296845;28;20747;-65
2024/02/27 06:35:31;;;;;;;7.93;7.10;;;7.80;87.40;;;;;;6296863;28;20465;-66
2024/02/27 06:38:55;;;;;;;6.07;5.53;;;8.60;84.60;;;;;;6296641;28;20585;-66
2024/02/27 06:42:09;;;;;;;3.90;3.60;;;9.80;80.00;;;;;;6279361;28;20457;-65
2024/02/27 06:45:24;;;;;;;4.20;3.27;;;11.00;72.00;;;;;;6296963;28;20466;-65
2024/02/27 06:48:32;;;;;;;3.53;3.23;;;11.90;65.80;;;;;;6296939;28;20433;-64
2024/02/27 06:55:13;;;;;;;5.17;3.10;;;12.70;60.90;;;;;;6272157;28;21044;-66
2024/02/27 06:58:30;;;;;;;3.60;2.53;;;13.30;58.70;;;;;;6271714;28;20544;-65
2024/02/27 07:01:46;;;;;;;2.93;2.70;;;13.70;57.50;;;;;;6271979;28;20750;-65
2024/02/27 07:05:03;;;;;;;5.33;3.40;;;14.30;56.50;;;;;;6272623;28;20787;-65
2024/02/27 07:08:23;;;;;;;3.33;2.57;;;15.10;55.40;;;;;;6273390;28;20453;-66
2024/02/27 07:11:47;;;;;;;6.67;3.60;;;15.70;52.90;;;;;;6271709;28;20461;-66
2024/02/27 07:15:01;;;;;;;4.07;3.27;;;16.10;51.80;;;;;;6271664;28;20470;-66
2024/02/27 07:18:11;;;;;;;7.17;3.50;;;16.20;50.80;;;;;;6270867;28;20651;-66
2024/02/27 07:21:25;;;;;;;4.10;3.70;;;15.90;50.30;;;;;;6253652;28;20770;-65
2024/02/27 07:24:35;;;;;;;4.90;3.90;;;15.70;50.60;;;;;;6270892;28;20478;-67
2024/02/27 07:27:50;;;;;;;9.63;7.00;;;15.50;51.10;;;;;;6270790;28;20453;-66
2024/02/27 07:31:06;;;;;;;7.70;5.63;;;15.20;51.50;;;;;;6271621;28;20457;-65
2024/02/27 07:34:22;;;;;;;6.43;4.80;;;15.00;51.50;;;;;;6274747;28;20442;-65
2024/02/27 07:37:37;;;;;;;6.00;4.53;;;14.80;52.00;;;;;;6276230;28;21083;-66
2024/02/27 07:40:50;;;;;;;5.70;4.43;;;14.40;52.40;;;;;;6276614;28;20747;-66
2024/02/27 07:43:58;;;;;;;6.10;5.20;;;14.10;53.40;;;;;;6276928;28;20457;-65
2024/02/27 07:47:16;;;;;;;8.03;4.20;;;14.20;53.60;;;;;;6275214;28;20454;-65
2024/02/27 07:50:26;;;;;;;7.57;4.67;;;14.30;53.60;;;;;;6269433;28;20574;-65
2024/02/27 07:53:33;;;;;;;3.90;3.60;;;14.40;53.50;;;;;;6274826;28;20923;-65
2024/02/27 07:56:43;;;;;;;3.97;3.57;;;14.70;53.10;;;;;;6279738;28;20465;-66
2024/02/27 07:59:55;;;;;;;7.50;3.50;;;15.00;52.40;;;;;;6270816;28;20480;-65
2024/02/27 08:03:12;;;;;;;4.50;3.40;;;15.40;51.80;;;;;;6276139;28;20466;-66
2024/02/27 08:06:28;;;;;;;5.47;3.67;;;15.70;51.20;;;;;;6287464;28;20494;-65
2024/02/27 08:09:37;;;;;;;7.00;3.60;;;15.90;50.60;;;;;;6285226;28;20988;-66
2024/02/27 08:12:46;;;;;;;5.97;3.47;;;16.00;50.40;;;;;;6297264;28;20451;-66
2024/02/27 08:15:57;;;;;;;6.63;4.07;;;16.10;50.10;;;;;;6264083;28;20831;-66
2024/02/27 08:19:07;;;;;;;5.93;3.73;;;16.30;49.50;;;;;;6263139;28;20777;-65
2024/02/27 08:22:18;;;;;;;6.60;3.50;;;16.40;49.40;;;;;;6281398;28;20580;-66
2024/02/27 08:25:23;;;;;;;7.60;3.43;;;16.60;49.20;;;;;;6275126;28;20478;-66
2024/02/27 08:28:36;;;;;;;11.00;3.80;;;16.80;49.10;;;;;;6277274;28;20449;-66
2024/02/27 08:31:58;;;;;;;5.47;4.07;;;17.20;48.50;;;;;;6257963;28;20470;-65
2024/02/27 08:35:13;;;;;;;3.53;2.70;;;17.70;47.70;;;;;;6270797;28;20474;-68
2024/02/27 08:38:21;;;;;;;4.87;3.23;;;18.50;46.80;;;;;;6259931;28;20912;-65
2024/02/27 08:41:30;;;;;;;4.83;2.70;;;19.70;45.00;;;;;;6271623;28;20600;-66
2024/02/27 08:44:37;;;;;;;5.10;3.33;;;21.80;43.40;;;;;;6264152;28;20238;-66
2024/02/27 08:47:57;;;;;;;5.90;2.60;;;24.90;39.40;;;;;;6275016;28;20199;-67
2024/02/27 08:54:31;;;;;;;6.50;2.70;;;29.50;31.60;;;;;;6273419;28;20314;-67
2024/02/27 08:57:40;;;;;;;4.30;3.03;;;31.50;29.10;;;;;;6294980;28;20227;-70
2024/02/27 09:00:46;;;;;;;4.47;2.97;;;33.80;27.30;;;;;;6298924;28;20653;-70
2024/02/27 09:03:59;;;;;;;3.83;3.42;;;35.50;25.30;;;;;;6299932;28;20221;-69
2024/02/27 09:07:06;;;;;;;3.50;2.85;;;36.30;23.50;;;;;;6299763;28;20229;-70
2024/02/27 09:10:16;;;;;;;3.88;2.45;;;36.90;22.60;;;;;;6283834;28;20213;-69
2024/02/27 09:13:23;;;;;;;3.20;2.40;;;37.30;22.10;;;;;;6296798;28;20207;-69
2024/02/27 09:16:39;;;;;;;6.15;2.90;;;37.80;21.30;;;;;;6299482;28;20244;-69
2024/02/27 09:19:47;;;;;;;3.30;2.47;;;37.60;20.80;;;;;;6299319;28;20217;-68
2024/02/27 09:22:54;;;;;;;5.13;3.13;;;37.70;20.30;;;;;;6278383;28;20309;-68
2024/02/27 09:26:03;;;;;;;3.90;2.67;;;37.70;20.40;;;;;;6289965;28;20219;-68
2024/02/27 09:29:19;;;;;;;6.32;3.05;;;37.50;20.30;;;;;;6273114;28;20643;-71
2024/02/27 09:32:29;;;;;;;6.80;2.72;;;38.10;19.80;;;;;;6201955;28;20229;-68
2024/02/27 09:35:52;;;;;;;3.97;2.70;;;38.50;19.30;;;;;;6201657;28;20565;-68
2024/02/27 09:38:59;;;;;;;4.78;3.00;;;38.20;18.80;;;;;;6221646;28;20224;-70
2024/02/27 09:42:21;;;;;;;5.05;3.15;;;37.50;18.90;;;;;;6220366;28;20244;-70
2024/02/27 09:45:42;;;;;;;3.38;2.90;;;37.60;19.40;;;;;;6233606;28;20228;-71
2024/02/27 09:48:55;;;;;;;7.57;3.17;;;37.00;19.10;;;;;;6223175;28;20320;-70
2024/02/27 09:52:09;;;;;;;5.05;2.80;;;34.70;20.70;;;;;;6207708;28;20229;-69
2024/02/27 09:55:25;;;;;;;4.75;2.17;;;34.40;21.40;;;;;;6187312;28;20395;-69
2024/02/27 09:58:31;;;;;;;3.40;2.63;;;36.00;20.50;;;;;;6177144;28;20245;-70
2024/02/27 10:01:44;;;;;;;4.60;2.55;;;37.00;19.50;;;;;;6191799;28;20201;-70
2024/02/27 10:04:55;;;;;;;5.97;2.35;;;38.80;18.90;;;;;;6200249;28;20732;-70
2024/02/27 10:08:24;;;;;;;5.35;2.70;;;39.40;17.90;;;;;;6200698;28;20275;-69
2024/02/27 10:11:39;;;;;;;6.30;2.83;;;38.20;18.30;;;;;;6196206;28;20241;-70
2024/02/27 10:14:48;;;;;;;4.53;2.47;;;38.10;18.60;;;;;;6193766;28;20566;-70
2024/02/27 10:17:57;;;;;;;3.33;2.88;;;37.80;18.60;;;;;;6203024;28;20220;-69
2024/02/27 10:21:04;;;;;;;2.90;2.42;;;38.60;18.40;;;;;;6201143;28;20593;-69
2024/02/27 10:24:25;;;;;;;3.55;2.65;;;39.40;17.80;;;;;;6201006;28;20205;-70
2024/02/27 10:27:37;;;;;;;2.95;2.20;;;38.40;18.00;;;;;;6195730;28;20314;-69
2024/02/27 10:30:54;;;;;;;2.45;1.85;;;37.50;19.10;;;;;;6184894;28;20193;-71
2024/02/27 10:34:05;;;;;;;3.38;3.05;;;36.80;18.80;;;;;;6201689;28;20194;-70
2024/02/27 10:37:10;;;;;;;3.50;3.20;;;35.00;20.20;;;;;;6200024;28;20426;-69
2024/02/27 10:40:24;;;;;;;3.42;3.03;;;31.70;22.10;;;;;;6200583;28;20433;-69
2024/02/27 10:43:36;;;;;;;4.50;3.10;;;30.30;24.00;;;;;;6200045;28;20189;-69
2024/02/27 10:46:42;;;;;;;4.50;3.47;;;28.60;24.80;;;;;;6184387;28;20225;-66
2024/02/27 10:49:51;;;;;;;3.53;2.77;;;26.90;26.40;;;;;;6201877;28;20598;-66
2024/02/27 10:53:00;;;;;;;7.07;2.93;;;24.10;29.30;;;;;;6225533;28;20310;-67
2024/02/27 10:56:13;;;;;;;4.30;3.07;;;21.80;31.60;;;;;;6226089;28;20213;-66
2024/02/27 10:59:23;;;;;;;3.10;2.70;;;20.20;34.50;;;;;;6225057;28;20536;-66
2024/02/27 11:02:35;;;;;;;4.37;3.50;;;20.10;34.90;;;;;;6225384;28;20221;-65
2024/02/27 11:05:52;;;;;;;4.40;3.47;;;19.40;36.30;;;;;;6225558;28;20221;-65
2024/02/27 11:09:16;;;;;;;4.40;3.47;;;18.50;38.20;;;;;;6230028;28;20201;-63
2024/02/27 11:12:44;;;;;;;6.47;3.60;;;18.20;38.90;;;;;;6230179;28;20205;-65
2024/02/27 11:15:52;;;;;;;5.63;3.70;;;17.80;39.90;;;;;;6229329;28;20236;-64
2024/02/27 11:19:05;;;;;;;7.67;3.73;;;17.40;40.80;;;;;;6230195;28;20297;-65
2024/02/27 11:22:13;;;;;;;6.40;3.43;;;17.00;42.00;;;;;;6229945;28;20534;-65
2024/02/27 11:25:18;;;;;;;4.00;2.90;;;16.80;42.90;;;;;;6232640;28;20467;-66
2024/02/27 11:28:53;;;;;;;3.87;2.80;;;16.60;43.40;;;;;;6218650;28;20533;-65
2024/02/27 11:32:03;;;;;;;3.47;3.07;;;16.30;44.60;;;;;;6229797;28;20440;-64
2024/02/27 11:35:11;;;;;;;5.93;3.40;;;16.50;45.10;;;;;;6242316;28;21003;-66
2024/02/27 11:38:18;;;;;;;8.13;3.97;;;16.30;45.80;;;;;;6223947;28;20443;-66
2024/02/27 11:41:28;;;;;;;5.90;4.67;;;16.00;46.40;;;;;;6226605;28;20593;-67
2024/02/27 11:45:07;;;;;;;6.50;4.00;;;15.60;47.70;;;;;;6225703;28;20470;-67
2024/02/27 11:48:54;;;;;;;8.00;4.97;;;15.20;49.30;;;;;;6223104;28;20541;-65
2024/02/27 11:52:03;;;;;;;7.10;4.80;;;15.50;49.20;;;;;;6226609;28;20464;-67
2024/02/27 11:55:24;;;;;;;7.60;4.40;;;15.80;49.00;;;;;;6229341;28;20462;-65
2024/02/27 11:58:30;;;;;;;8.47;5.00;;;15.90;48.80;;;;;;6232734;28;20609;-66
2024/02/27 12:01:43;;;;;;;10.00;5.30;;;15.80;49.20;;;;;;6228900;28;20666;-66
2024/02/27 12:05:03;;;;;;;8.73;4.10;;;15.80;50.00;;;;;;6226626;28;20483;-67
2024/02/27 12:08:21;;;;;;;17.60;5.07;;;15.60;51.00;;;;;;6229276;28;20534;-66
2024/02/27 12:11:30;;;;;;;7.03;5.80;;;15.60;51.10;;;;;;6226648;28;20865;-65
2024/02/27 12:14:40;;;;;;;6.73;4.97;;;15.40;52.10;;;;;;6243501;28;20480;-65
2024/02/27 12:17:49;;;;;;;5.80;4.50;;;15.50;52.80;;;;;;6233645;28;20475;-65
2024/02/27 12:21:03;;;;;;;6.37;4.20;;;15.30;53.30;;;;;;6218283;28;20483;-66
2024/02/27 12:24:12;;;;;;;7.90;3.70;;;15.10;54.30;;;;;;6229232;28;20909;-67
2024/02/27 12:27:20;;;;;;;6.63;3.57;;;15.20;54.40;;;;;;6223248;28;20788;-66
2024/02/27 12:30:35;;;;;;;6.53;3.57;;;15.80;54.20;;;;;;6229627;28;20446;-66
2024/02/27 12:33:47;;;;;;;5.40;3.33;;;16.10;53.00;;;;;;6247654;28;20462;-65
2024/02/27 12:37:08;;;;;;;4.00;3.60;;;16.20;52.80;;;;;;6251617;28;20463;-66
2024/02/27 12:40:26;;;;;;;6.00;3.47;;;16.40;52.20;;;;;;6237112;28;20800;-66
2024/02/27 12:43:40;;;;;;;5.87;4.00;;;16.30;52.30;;;;;;6237291;28;20780;-65
2024/02/27 12:46:47;;;;;;;4.80;3.43;;;16.20;52.30;;;;;;6243328;28;20470;-66
2024/02/27 12:49:56;;;;;;;4.97;3.57;;;16.10;53.20;;;;;;6240692;28;20499;-65
2024/02/27 12:53:09;;;;;;;5.77;4.33;;;16.10;53.10;;;;;;6221373;28;20486;-65
2024/02/27 12:56:21;;;;;;;6.43;4.53;;;15.90;53.10;;;;;;6227898;28;20467;-65
2024/02/27 12:59:28;;;;;;;5.03;3.43;;;15.80;55.30;;;;;;6241279;28;20476;-65
2024/02/27 13:02:40;;;;;;;5.23;3.37;;;16.10;55.30;;;;;;6244067;28;20444;-66
2024/02/27 13:05:48;;;;;;;7.73;3.20;;;16.40;54.50;;;;;;6244204;28;20459;-65
2024/02/27 13:09:10;;;;;;;8.10;3.53;;;16.30;53.50;;;;;;6230161;28;20480;-67
2024/02/27 13:12:24;;;;;;;4.13;3.50;;;16.40;53.60;;;;;;6228517;28;20447;-66
2024/02/27 13:15:40;;;;;;;3.50;3.10;;;16.40;53.70;;;;;;6217404;28;20912;-66
2024/02/27 13:18:47;;;;;;;5.63;2.93;;;16.10;54.10;;;;;;6244141;28;20444;-66
2024/02/27 13:22:08;;;;;;;6.20;3.40;;;16.10;54.30;;;;;;6243692;28;20478;-65
2024/02/27 13:25:24;;;;;;;4.03;3.73;;;16.00;55.50;;;;;;6223022;28;20507;-65
2024/02/27 13:28:32;;;;;;;3.73;3.43;;;16.00;55.90;;;;;;6229966;28;20447;-66
2024/02/27 13:31:41;;;;;;;4.30;3.27;;;16.00;55.90;;;;;;6236478;28;20447;-67
2024/02/27 13:34:56;;;;;;;3.60;3.30;;;16.20;55.40;;;;;;6246942;28;20541;-64
2024/02/27 13:38:03;;;;;;;4.57;3.70;;;16.20;55.30;;;;;;6234212;28;20441;-65
2024/02/27 13:41:30;;;;;;;2.93;2.63;;;16.20;55.30;;;;;;6233331;28;20534;-67
2024/02/27 13:44:39;;;;;;;3.37;3.00;;;16.40;55.10;;;;;;6243282;28;20475;-65
2024/02/27 13:47:53;;;;;;;4.87;3.00;;;16.40;54.40;;;;;;6235909;28;20455;-65
2024/02/27 13:51:02;;;;;;;4.90;3.37;;;16.30;55.30;;;;;;6242455;28;20471;-63
2024/02/27 13:57:34;;;;;;;4.13;3.67;;;16.10;56.30;;;;;;6239679;28;20523;-64
2024/02/27 14:00:42;;;;;;;3.37;3.07;;;16.20;55.80;;;;;;6242053;28;20490;-63
2024/02/27 14:03:47;;;;;;;4.93;3.30;;;16.20;55.50;;;;;;6239851;28;20915;-64
2024/02/27 14:06:52;;;;;;;5.27;3.37;;;16.10;55.70;;;;;;6235141;28;20498;-64
2024/02/27 14:09:59;;;;;;;5.07;3.70;;;16.00;55.90;;;;;;6235917;28;20954;-66
2024/02/27 14:13:20;;;;;;;4.53;3.20;;;15.90;56.10;;;;;;6239970;28;20440;-63
2024/02/27 14:16:31;;;;;;;4.70;3.50;;;15.80;56.30;;;;;;6245530;28;20467;-66
2024/02/27 14:19:35;;;;;;;6.47;4.10;;;15.80;56.80;;;;;;6238065;28;20468;-66
2024/02/27 14:22:39;;;;;;;4.47;3.40;;;16.00;56.80;;;;;;6225957;28;20566;-63
2024/02/27 14:25:44;;;;;;;8.00;4.10;;;16.20;56.40;;;;;;6238821;28;20459;-66
2024/02/27 14:28:59;;;;;;;4.27;3.63;;;16.20;56.10;;;;;;6223129;28;20451;-66
2024/02/27 14:32:17;;;;;;;4.87;3.40;;;16.30;56.00;;;;;;6251860;28;20915;-63
2024/02/27 14:35:28;;;;;;;7.97;5.40;;;16.40;55.40;;;;;;6222488;28;20478;-66
2024/02/27 14:38:33;;;;;;;5.33;3.40;;;16.50;55.70;;;;;;6234346;28;20862;-66
2024/02/27 14:41:43;;;;;;;6.47;5.17;;;16.60;56.00;;;;;;6246038;28;20550;-66
2024/02/27 14:44:52;;;;;;;7.47;5.20;;;16.60;55.90;;;;;;6233982;28;20474;-65
2024/02/27 14:48:07;;;;;;;8.53;5.67;;;16.50;55.70;;;;;;6242318;28;20939;-64
2024/02/27 14:54:37;;;;;;;5.83;4.90;;;16.40;56.50;;;;;;6200214;28;20471;-64
2024/02/27 15:01:02;;;;;;;5.70;3.57;;;16.00;56.50;;;;;;6201155;28;20500;-63
2024/02/27 15:04:14;;;;;;;4.90;4.00;;;15.80;56.80;;;;;;6201713;28;20453;-64
2024/02/27 15:07:23;;;;;;;5.77;4.53;;;15.70;57.40;;;;;;6177530;28;20445;-65
2024/02/27 15:10:31;;;;;;;6.00;4.13;;;15.60;58.10;;;;;;6201152;28;20433;-66
2024/02/27 15:13:44;;;;;;;5.23;4.50;;;15.50;58.40;;;;;;6201571;28;20459;-65
2024/02/27 15:17:01;;;;;;;5.20;4.70;;;15.40;58.80;;;;;;6200526;28;20469;-62
2024/02/27 15:20:11;;;;;;;9.40;8.40;;;15.30;58.80;;;;;;6202199;28;20461;-66
2024/02/27 15:23:20;;;;;;;18.97;13.80;;;15.20;59.50;;;;;;6200875;28;20531;-65
2024/02/27 15:26:27;;;;;;;13.27;8.33;;;15.10;59.90;;;;;;6199092;28;20913;-65
2024/02/27 15:29:31;;;;;;;9.13;7.20;;;14.90;61.00;;;;;;6187164;28;20448;-65
2024/02/27 15:32:50;;;;;;;8.30;4.60;;;14.80;62.00;;;;;;6202368;28;20735;-64
2024/02/27 15:35:55;;;;;;;7.03;4.80;;;14.60;62.20;;;;;;6224378;28;20932;-64
2024/02/27 15:39:08;;;;;;;6.93;4.77;;;14.60;63.40;;;;;;6223955;28;20448;-64
2024/02/27 15:42:22;;;;;;;6.43;3.97;;;14.50;64.00;;;;;;6210693;28;20512;-66
2024/02/27 15:45:31;;;;;;;6.40;4.37;;;14.50;64.70;;;;;;6198364;28;20504;-66
2024/02/27 15:48:41;;;;;;;7.53;4.53;;;14.40;65.40;;;;;;6200165;28;21065;-66
2024/02/27 15:51:50;;;;;;;6.37;5.73;;;14.20;66.00;;;;;;6197466;28;20484;-65
2024/02/27 15:55:05;;;;;;;8.80;5.00;;;13.90;67.50;;;;;;6227406;28;20505;-66
2024/02/27 15:58:20;;;;;;;6.67;5.00;;;13.50;69.50;;;;;;6228907;28;20455;-66
2024/02/27 16:01:28;;;;;;;6.50;4.80;;;13.10;71.10;;;;;;6208542;28;20480;-66
2024/02/27 16:04:57;;;;;;;6.23;5.43;;;13.00;72.30;;;;;;6227915;28;20637;-65
2024/02/27 16:08:14;;;;;;;9.33;5.73;;;12.90;73.10;;;;;;6227593;28;20443;-65
2024/02/27 16:11:30;;;;;;;6.53;5.70;;;12.90;74.00;;;;;;6227353;28;20472;-65
2024/02/27 16:14:37;;;;;;;8.90;5.20;;;12.90;73.80;;;;;;6227976;28;20479;-65
2024/02/27 16:17:41;;;;;;;5.23;3.80;;;12.80;73.40;;;;;;6228706;28;20954;-65
2024/02/27 16:20:54;;;;;;;5.27;4.77;;;12.80;73.30;;;;;;6231704;28;20931;-65
2024/02/27 16:24:10;;;;;;;5.17;4.57;;;12.80;73.00;;;;;;6228035;28;20459;-63
2024/02/27 16:27:19;;;;;;;27.13;12.67;;;12.80;73.10;;;;;;6221828;28;20438;-65
2024/02/27 16:30:32;;;;;;;11.30;5.27;;;12.80;73.60;;;;;;6227905;28;20464;-64
2024/02/27 16:33:42;;;;;;;5.87;4.90;;;12.70;73.90;;;;;;6233873;28;20519;-65
2024/02/27 16:37:03;;;;;;;5.57;4.77;;;12.70;74.60;;;;;;6218284;28;20453;-65
2024/02/27 16:40:18;;;;;;;7.43;5.60;;;12.60;75.50;;;;;;6228416;28;20483;-64
2024/02/27 16:43:25;;;;;;;8.03;4.63;;;12.60;76.40;;;;;;6200441;28;20553;-65
2024/02/27 16:46:40;;;;;;;8.30;5.10;;;12.50;76.70;;;;;;6227479;28;20510;-63
2024/02/27 16:49:49;;;;;;;6.00;5.40;;;12.40;77.00;;;;;;6227830;28;20480;-66
2024/02/27 16:53:12;;;;;;;10.10;6.20;;;12.30;76.90;;;;;;6225918;28;20595;-64
2024/02/27 16:56:24;;;;;;;6.67;5.87;;;12.30;77.80;;;;;;6218535;28;20557;-64
2024/02/27 16:59:31;;;;;;;9.23;5.70;;;12.20;78.80;;;;;;6225765;28;20795;-64
2024/02/27 17:02:40;;;;;;;6.83;6.10;;;12.20;80.10;;;;;;6226754;28;20480;-64
2024/02/27 17:05:56;;;;;;;9.00;6.37;;;12.20;80.30;;;;;;6227757;28;20468;-64